Latest Weather Observations for Lombadina

IDW60801

Issued at 4:33 pm WST Saturday 16 December 2017 (issued every 30 minutes, with the page automatically refreshed every 10 minutes)

About weather observations | Map of weather stations | Latest weather observations for WA | Other Formats
Station Details ID: 503016 Name: LOMBADINA AIRSTRIP Lat: -16.52 Lon: 122.92 Height: 42.0 m
Data from the previous 72 hours. | See also: Recent months for locations in Western Australia
Date/Time
WST
Temp
°C
App
Temp
°C
Dew
Point
°C
Rel
Hum
%
Delta-T
°C
Wind Press
QNH
hPa
Press
MSL
hPa
Rain since
9am
mm
Dir  Spd
km/h
Gust
km/h
Spd
kts
Gust
kts
16/04:30pm 31.8 35.4 24.4 65 5.2 W 13 24 7 13 1006.4 1006.0 0.0
16/04:00pm 32.2 35.9 24.5 64 5.4 W 13 28 7 15 1006.3 1005.9 0.0
16/03:30pm 32.1 34.5 23.6 60 5.9 WNW 17 28 9 15 1006.0 1005.6 0.0
16/03:00pm 32.7 34.8 22.5 55 7.0 WNW 15 26 8 14 1005.7 1005.3 0.0
16/02:30pm 32.4 34.8 23.6 59 6.1 WNW 17 26 9 14 1006.3 1005.9 0.0
16/02:00pm 32.3 34.0 23.0 58 6.4 WNW 19 30 10 16 1006.7 1006.3 0.0
16/01:30pm 33.7 35.5 22.5 52 7.7 WNW 17 30 9 16 1007.1 1006.7 0.0
16/01:00pm 33.5 35.9 22.9 53 7.3 WNW 15 24 8 13 1007.3 1006.9 0.0
16/12:30pm 33.1 35.9 23.7 57 6.5 NW 15 26 8 14 1007.7 1007.3 0.0
16/12:00pm 32.6 35.0 23.0 57 6.6 W 15 26 8 14 1008.1 1007.7 0.0
16/11:30am 33.4 35.8 23.7 56 6.8 W 17 28 9 15 1008.2 1007.8 0.0
16/11:00am 33.5 36.6 24.1 58 6.6 W 15 26 8 14 1008.7 1008.3 0.0
16/10:30am 32.3 34.6 23.5 59 6.1 WNW 17 24 9 13 1009.0 1008.6 0.0
16/10:00am 31.9 35.3 24.0 63 5.5 WNW 13 22 7 12 1009.5 1009.1 0.0
16/09:30am 32.0 34.9 23.8 62 5.7 W 15 24 8 13 1009.5 1009.1 0.0
16/09:00am 31.8 34.9 24.1 63 5.4 W 15 28 8 15 1009.7 1009.3 0.0
16/08:30am 30.7 33.8 24.1 68 4.6 W 15 28 8 15 1009.5 1009.1 0.0
16/08:00am 31.3 34.8 24.2 66 5.0 W 13 28 7 15 1009.2 1008.8 0.0
16/07:30am 30.8 34.0 24.4 68 4.5 W 15 22 8 12 1009.2 1008.8 0.0
16/07:00am 30.4 35.7 24.3 70 4.3 SW 4 7 2 4 1009.2 1008.8 0.0
16/06:30am 29.4 33.7 21.9 64 5.1 SW 2 6 1 3 1009.2 1008.8 0.0
16/06:00am 27.7 32.5 22.2 72 3.7 CALM 0 2 0 1 1009.0 1008.6 0.0
16/05:30am 25.9 30.4 22.2 80 2.5 SW 2 4 1 2 1008.7 1008.3 0.0
16/05:00am 25.6 29.7 22.3 82 2.2 SSW 4 6 2 3 1008.3 1007.9 0.0
16/04:30am 25.9 30.0 22.2 80 2.5 SW 4 7 2 4 1008.0 1007.6 0.0
16/04:00am 26.1 31.0 22.4 80 2.5 CALM 0 6 0 3 1007.8 1007.4 0.0
16/03:30am 27.1 31.6 22.3 75 3.2 W 2 6 1 3 1007.3 1006.9 0.0
16/03:00am 28.1 32.0 22.6 72 3.7 SE 6 11 3 6 1007.8 1007.4 0.0
16/02:30am 27.9 33.5 24.9 84 2.1 SE 4 9 2 5 1008.0 1007.6 0.0
16/02:00am 27.9 32.3 24.5 82 2.4 SE 9 15 5 8 1008.5 1008.1 0.0
16/01:30am 27.2 33.2 24.3 84 2.0 CALM 0 6 0 3 1007.8 1007.4 0.0
16/01:00am 28.0 33.7 24.4 81 2.5 WSW 2 6 1 3 1007.6 1007.2 0.0
16/12:30am 28.3 33.7 24.5 80 2.6 WSW 4 7 2 4 1007.2 1006.8 0.0
16/12:00am 28.5 33.5 24.5 79 2.8 W 6 11 3 6 1007.2 1006.8 0.0
 
Date/Time
WST
Temp
°C
App
Temp
°C
Dew
Point
°C
Rel
Hum
%
Delta-T
°C
Wind Press
QNH
hPa
Press
MSL
hPa
Rain since
9am
mm
Dir  Spd
km/h
Gust
km/h
Spd
kts
Gust
kts
15/11:30pm 28.8 34.1 24.4 77 3.1 WSW 4 9 2 5 1008.1 1007.7 0.0
15/11:00pm 29.1 33.5 24.4 76 3.3 SW 9 15 5 8 1008.7 1008.3 0.0
15/10:30pm 29.3 33.4 24.6 76 3.3 W 11 22 6 12 1008.1 1007.7 0.0
15/10:00pm 29.4 34.5 24.7 76 3.3 W 6 13 3 7 1008.5 1008.1 0.0
15/09:30pm 29.3 33.8 24.6 76 3.3 W 9 17 5 9 1008.6 1008.2 0.0
15/09:00pm 29.4 34.1 24.9 77 3.2 WNW 9 19 5 10 1008.6 1008.2 0.0
15/08:30pm 29.6 33.9 24.9 76 3.3 W 11 20 6 11 1008.1 1007.7 0.0
15/08:00pm 29.6 33.5 24.9 76 3.3 W 13 22 7 12 1007.3 1006.9 0.0
15/07:30pm 29.6 33.8 24.7 75 3.4 WNW 11 22 6 12 1006.7 1006.3 0.0
15/07:00pm 29.7 34.3 24.8 75 3.4 W 9 20 5 11 1006.4 1006.0 0.0
15/06:30pm 29.9 33.8 24.8 74 3.6 W 13 24 7 13 1006.1 1005.7 0.0
15/06:00pm 30.1 33.3 24.3 71 4.1 W 15 30 8 16 1005.7 1005.3 0.0
15/05:30pm 30.5 33.0 24.4 70 4.3 W 19 30 10 16 1005.1 1004.7 0.0
15/05:00pm 30.9 33.2 24.1 67 4.8 W 19 30 10 16 1004.8 1004.5 0.0
15/04:30pm 31.5 34.0 24.4 66 5.0 W 19 33 10 18 1004.7 1004.4 0.0
15/04:00pm 32.2 34.6 24.3 63 5.5 W 19 33 10 18 1004.7 1004.4 0.0
15/03:30pm 32.2 34.5 24.5 64 5.4 W 20 37 11 20 1005.2 1004.8 0.0
15/03:00pm 32.0 33.2 23.8 62 5.7 W 24 37 13 20 1004.8 1004.5 0.0
15/02:30pm 32.4 33.6 23.9 61 5.9 W 24 39 13 21 1005.1 1004.7 0.0
15/02:00pm 33.2 34.4 23.8 57 6.6 W 24 39 13 21 1005.3 1004.9 0.0
15/01:30pm 33.5 35.6 24.1 58 6.6 W 20 35 11 19 1005.7 1005.3 0.0
15/01:00pm 33.8 36.1 23.5 55 7.2 W 17 37 9 20 1006.2 1005.8 0.0
15/12:30pm 32.4 33.8 22.8 57 6.6 W 20 33 11 18 1006.7 1006.3 0.0
15/12:00pm 33.4 35.5 23.7 56 6.8 W 19 41 10 22 1006.9 1006.5 0.0
15/11:30am 33.7 35.9 24.0 57 6.8 W 19 33 10 18 1007.4 1007.0 0.0
15/11:00am 32.8 35.1 23.4 57 6.5 W 17 32 9 17 1008.1 1007.7 0.0
15/10:30am 32.8 34.9 23.7 58 6.3 W 19 30 10 16 1008.3 1007.9 0.0
15/10:00am 33.1 35.4 23.4 56 6.7 W 17 33 9 18 1008.6 1008.2 0.0
15/09:30am 32.7 34.9 23.9 60 6.1 W 19 37 10 20 1008.7 1008.3 0.0
15/09:00am 32.3 34.6 23.5 59 6.1 W 17 32 9 17 1008.8 1008.4 0.0
15/08:30am 32.2 35.0 23.7 61 5.9 W 15 30 8 16 1008.8 1008.4 0.0
15/08:00am 31.8 34.7 23.9 63 5.5 W 15 28 8 15 1008.8 1008.4 0.0
15/07:30am 30.9 35.1 25.3 72 4.0 WSW 13 24 7 13 1008.3 1007.9 0.0
15/07:00am 29.7 35.0 25.2 77 3.2 WNW 7 15 4 8 1008.1 1007.7 0.0
15/06:30am 29.4 34.8 25.2 78 3.0 WNW 6 9 3 5 1008.0 1007.6 0.0
15/06:00am 28.2 34.5 25.4 85 2.0 NW 2 4 1 2 1008.0 1007.6 0.0
15/05:30am 27.2 33.5 25.4 90 1.3 ENE 2 4 1 2 1008.0 1007.6 0.0
15/05:00am 27.4 34.0 25.2 88 1.5 CALM 0 4 0 2 1007.7 1007.3 0.0
15/04:30am 27.8 33.7 25.4 87 1.7 S 4 9 2 5 1007.0 1006.6 0.0
15/04:00am 28.0 33.7 25.6 87 1.7 SSE 6 15 3 8 1006.7 1006.3 0.0
15/03:30am 28.4 33.5 25.6 85 2.0 SSE 9 15 5 8 1006.4 1006.0 0.0
15/03:00am 28.5 33.9 25.5 84 2.1 WSW 7 13 4 7 1005.4 1005.0 0.0
15/02:30am 28.6 34.1 25.6 84 2.1 WSW 7 13 4 7 1005.4 1005.0 0.0
15/02:00am 28.6 33.7 25.6 84 2.1 W 9 19 5 10 1005.3 1004.9 0.0
15/01:30am 28.5 33.6 25.5 84 2.1 WSW 9 17 5 9 1005.1 1004.7 0.0
15/01:00am 28.7 33.9 25.7 84 2.1 WSW 9 20 5 11 1005.4 1005.0 0.0
15/12:30am 28.8 32.9 25.8 84 2.1 WSW 15 35 8 19 1005.5 1005.1 0.0
15/12:00am 28.8 33.3 25.8 84 2.1 WSW 13 26 7 14 1005.7 1005.3 0.0
 
Date/Time
WST
Temp
°C
App
Temp
°C
Dew
Point
°C
Rel
Hum
%
Delta-T
°C
Wind Press
QNH
hPa
Press
MSL
hPa
Rain since
9am
mm
Dir  Spd
km/h
Gust
km/h
Spd
kts
Gust
kts
14/11:30pm 28.8 32.9 25.8 84 2.1 WSW 15 28 8 15 1006.0 1005.6 0.0
14/11:00pm 28.9 32.7 25.9 84 2.1 WSW 17 30 9 16 1006.2 1005.8 0.0
14/10:30pm 28.9 32.7 25.9 84 2.1 WSW 17 33 9 18 1006.3 1005.9 0.0
14/10:00pm 29.0 32.9 26.0 84 2.1 WSW 17 30 9 16 1006.4 1006.0 0.0
14/09:30pm 29.1 33.3 25.9 83 2.3 WSW 15 32 8 17 1006.6 1006.2 0.0
14/09:00pm 29.2 33.1 26.0 83 2.3 WSW 17 37 9 20 1006.4 1006.0 0.0
14/08:30pm 29.3 32.7 25.9 82 2.4 WSW 19 41 10 22 1006.3 1005.9 0.0
14/08:00pm 29.4 32.6 25.6 80 2.7 W 19 33 10 18 1006.5 1006.1 0.0
14/07:30pm 29.5 33.2 25.7 80 2.7 W 17 33 9 18 1006.2 1005.8 0.0
14/07:00pm 29.6 32.8 25.8 80 2.7 W 20 37 11 20 1006.2 1005.8 0.0
14/06:30pm 29.8 33.0 25.5 78 3.0 WSW 19 33 10 18 1005.7 1005.3 0.0
14/06:00pm 30.0 32.7 25.7 78 3.1 W 22 39 12 21 1005.4 1005.0 0.0
14/05:30pm 30.5 32.8 25.6 75 3.5 WSW 24 43 13 23 1005.2 1004.8 0.0
14/05:00pm 31.5 34.7 25.8 72 4.1 W 20 39 11 21 1005.1 1004.7 0.0
14/04:30pm 31.8 34.7 25.4 69 4.5 W 20 35 11 19 1005.1 1004.7 0.0
14/04:00pm 32.1 34.3 24.9 65 5.1 W 22 39 12 21 1005.4 1005.0 0.0
14/03:30pm 32.3 34.1 24.9 65 5.2 W 24 46 13 25 1005.6 1005.2 0.0
14/03:00pm 32.4 34.9 24.7 64 5.4 W 20 37 11 20 1005.8 1005.4 0.0
14/02:30pm 32.5 35.4 25.1 65 5.2 W 19 33 10 18 1006.0 1005.6 0.0
14/02:00pm 31.7 34.5 25.3 69 4.5 W 20 37 11 20 1006.3 1005.9 0.0
14/01:30pm 31.8 35.2 25.2 68 4.7 W 17 32 9 17 1006.9 1006.5 0.0
14/01:00pm 31.6 34.4 25.0 68 4.7 W 19 33 10 18 1006.9 1006.5 0.0
14/12:30pm 32.8 35.2 24.3 61 6.0 W 19 33 10 18 1007.5 1007.1 0.0
14/12:00pm 33.8 36.3 24.7 59 6.4 W 20 39 11 21 1007.6 1007.2 0.0
14/11:30am 33.7 36.5 24.3 58 6.6 W 17 33 9 18 1008.0 1007.6 0.0
14/11:00am 33.5 36.0 24.7 60 6.2 W 20 41 11 22 1008.1 1007.7 0.0
14/10:30am 32.4 33.9 24.4 62 5.6 W 24 39 13 21 1008.3 1007.9 0.0
14/10:00am 33.0 35.5 24.5 61 6.0 W 19 37 10 20 1008.9 1008.5 0.0
14/09:30am 32.4 34.9 24.4 62 5.6 W 19 33 10 18 1009.1 1008.7 0.0
14/09:00am 32.1 35.1 24.7 65 5.2 W 17 32 9 17 1009.1 1008.7 0.0
14/08:30am 31.9 34.6 25.0 67 4.9 W 20 35 11 19 1008.7 1008.3 0.0
14/08:00am 31.4 34.2 25.0 69 4.5 W 19 30 10 16 1008.8 1008.4 0.0
14/07:30am 31.1 34.3 25.0 70 4.3 W 17 32 9 17 1008.4 1008.0 0.0
14/07:00am 30.8 34.6 24.7 70 4.3 WSW 13 26 7 14 1008.4 1008.0 0.0
14/06:30am 30.2 33.6 24.6 72 3.9 W 15 26 8 14 1008.0 1007.6 0.0
14/06:00am 29.4 33.7 24.9 77 3.2 W 11 20 6 11 1007.8 1007.4 0.0
14/05:30am 29.1 33.4 24.9 78 2.9 WSW 11 24 6 13 1007.4 1007.0 0.0
14/05:00am 28.9 32.9 25.1 80 2.7 W 13 22 7 12 1007.1 1006.7 0.0
14/04:30am 29.0 32.9 24.8 78 2.9 WSW 13 24 7 13 1006.4 1006.0 0.0
14/04:00am 29.1 32.8 25.1 79 2.8 WSW 15 32 8 17 1006.3 1005.9 0.0
14/03:30am 29.1 32.8 25.1 79 2.8 W 15 26 8 14 1006.1 1005.7 0.0
14/03:00am 29.0 33.1 25.2 80 2.7 WSW 13 28 7 15 1005.5 1005.1 0.0
14/02:30am 29.0 33.1 25.2 80 2.7 WSW 13 22 7 12 1005.4 1005.0 0.0
14/02:00am 29.2 33.3 25.2 79 2.8 WSW 13 28 7 15 1005.8 1005.4 0.0
14/01:30am 29.1 33.3 25.3 80 2.7 W 13 22 7 12 1005.9 1005.5 0.0
14/01:00am 29.0 33.1 25.2 80 2.7 WSW 13 20 7 11 1006.0 1005.6 0.0
14/12:30am 29.0 33.5 25.2 80 2.7 W 11 19 6 10 1006.5 1006.1 0.0
14/12:00am 29.1 33.1 25.1 79 2.8 WSW 13 26 7 14 1006.6 1006.2 0.0
 
Date/Time
WST
Temp
°C
App
Temp
°C
Dew
Point
°C
Rel
Hum
%
Delta-T
°C
Wind Press
QNH
hPa
Press
MSL
hPa
Rain since
9am
mm
Dir  Spd
km/h
Gust
km/h
Spd
kts
Gust
kts
13/11:30pm 29.0 33.6 25.4 81 2.5 WSW 11 24 6 13 1007.0 1006.6 0.0
13/11:00pm 29.1 33.8 25.5 81 2.5 WSW 11 22 6 12 1007.3 1006.9 0.0
13/10:30pm 29.1 33.4 25.5 81 2.5 WSW 13 26 7 14 1007.5 1007.1 0.0
13/10:00pm 29.2 33.7 25.8 82 2.4 WSW 13 26 7 14 1007.8 1007.4 0.0
13/09:30pm 29.3 33.7 25.7 81 2.6 WSW 13 28 7 15 1007.9 1007.5 0.0
13/09:00pm 29.4 33.4 25.6 80 2.7 WSW 15 30 8 16 1008.1 1007.7 0.0
13/08:30pm 29.4 33.8 25.6 80 2.7 WSW 13 26 7 14 1007.9 1007.5 0.0
13/08:00pm 29.5 33.2 25.7 80 2.7 WSW 17 28 9 15 1007.4 1007.0 0.0
13/07:30pm 29.7 33.2 25.4 78 3.0 WSW 17 30 9 16 1007.1 1006.7 0.0
13/07:00pm 29.8 33.6 25.3 77 3.2 WSW 15 28 8 15 1006.9 1006.5 0.0
13/06:30pm 30.1 33.6 24.9 73 3.7 WSW 15 26 8 14 1006.7 1006.3 0.0
13/06:00pm 30.7 34.1 24.6 70 4.3 WSW 15 32 8 17 1006.2 1005.8 0.0
13/05:30pm 31.1 34.0 24.5 68 4.6 W 17 30 9 16 1005.8 1005.4 0.0
13/05:00pm 31.4 34.5 24.8 68 4.7 W 17 30 9 16 1005.8 1005.4 0.0

Other Formats:

Comma delimited format used in spreadsheet applications
http://www.bom.gov.au/fwo/IDW60801/IDW60801.99206.axf

JavaScript Object Notation format (JSON) in row-major order
http://www.bom.gov.au/fwo/IDW60801/IDW60801.99206.json